sensor_id;sensor_type;location;lat;lon;timestamp;pressure;altitude;pressure_sealevel;temperature;humidity
32330;BME280;18807;52.434;13.238;2023-07-13T00:03:47;75018.72;;;-142.05;59.19
32330;BME280;18807;52.434;13.238;2023-07-13T00:11:21;75024.81;;;-142.05;59.47
32330;BME280;18807;52.434;13.238;2023-07-13T00:18:56;75028.91;;;-142.05;59.30
32330;BME280;18807;52.434;13.238;2023-07-13T00:26:33;75045.22;;;-142.05;59.51
32330;BME280;18807;52.434;13.238;2023-07-13T00:34:09;75057.47;;;-142.05;59.71
32330;BME280;18807;52.434;13.238;2023-07-13T00:41:43;75053.41;;;-142.05;60.01
32330;BME280;18807;52.434;13.238;2023-07-13T00:49:20;75063.59;;;-142.05;60.70
32330;BME280;18807;52.434;13.238;2023-07-13T00:56:57;75081.97;;;-142.05;61.68
32330;BME280;18807;52.434;13.238;2023-07-13T01:04:35;75116.66;;;-142.05;62.87
32330;BME280;18807;52.434;13.238;2023-07-13T01:12:09;75132.97;;;-142.05;64.32
32330;BME280;18807;52.434;13.238;2023-07-13T01:19:45;75155.41;;;-142.05;66.84
32330;BME280;18807;52.434;13.238;2023-07-13T01:27:23;75173.78;;;-142.05;67.77
32330;BME280;18807;52.434;13.238;2023-07-13T01:34:58;75177.84;;;-142.05;68.88
32330;BME280;18807;52.434;13.238;2023-07-13T01:42:33;75183.97;;;-142.05;71.31
32330;BME280;18807;52.434;13.238;2023-07-13T01:50:09;75204.38;;;-142.05;72.59
32330;BME280;18807;52.434;13.238;2023-07-13T01:57:44;75218.66;;;-142.05;72.01
32330;BME280;18807;52.434;13.238;2023-07-13T02:05:19;75232.94;;;-142.05;73.02
32330;BME280;18807;52.434;13.238;2023-07-13T02:12:54;75253.34;;;-142.05;74.17
32330;BME280;18807;52.434;13.238;2023-07-13T02:20:28;75257.44;;;-142.05;74.14
32330;BME280;18807;52.434;13.238;2023-07-13T02:28:04;75251.31;;;-142.05;73.20
32330;BME280;18807;52.434;13.238;2023-07-13T02:35:39;75267.63;;;-142.05;75.69
32330;BME280;18807;52.434;13.238;2023-07-13T02:43:15;75288.03;;;-142.05;78.98
32330;BME280;18807;52.434;13.238;2023-07-13T02:50:48;75326.81;;;-142.05;80.09
32330;BME280;18807;52.434;13.238;2023-07-13T02:58:24;75349.25;;;-142.05;79.36
32330;BME280;18807;52.434;13.238;2023-07-13T03:05:59;75365.56;;;-142.05;78.38
32330;BME280;18807;52.434;13.238;2023-07-13T03:13:36;75367.63;;;-142.05;78.17
32330;BME280;18807;52.434;13.238;2023-07-13T03:21:10;75369.66;;;-142.05;78.84
32330;BME280;18807;52.434;13.238;2023-07-13T03:28:46;75369.66;;;-142.05;80.34
32330;BME280;18807;52.434;13.238;2023-07-13T03:36:23;75383.94;;;-142.05;81.45
32330;BME280;18807;52.434;13.238;2023-07-13T03:43:58;75398.22;;;-142.05;81.54
32330;BME280;18807;52.434;13.238;2023-07-13T03:51:33;75398.22;;;-142.05;82.70
32330;BME280;18807;52.434;13.238;2023-07-13T03:59:08;75406.38;;;-142.05;83.78
32330;BME280;18807;52.434;13.238;2023-07-13T04:06:42;75400.25;;;-142.05;85.72
32330;BME280;18807;52.434;13.238;2023-07-13T04:14:17;75394.16;;;-142.05;86.77
32330;BME280;18807;52.434;13.238;2023-07-13T04:22:09;75390.06;;;-142.05;88.52
32330;BME280;18807;52.434;13.238;2023-07-13T04:29:44;75367.63;;;-142.05;87.55
32330;BME280;18807;52.434;13.238;2023-07-13T04:37:18;75355.38;;;-142.05;85.91
32330;BME280;18807;52.434;13.238;2023-07-13T04:44:53;75339.06;;;-142.05;83.32
32330;BME280;18807;52.434;13.238;2023-07-13T04:52:28;75314.56;;;-142.05;81.22
32330;BME280;18807;52.434;13.238;2023-07-13T05:00:05;75296.19;;;-142.05;80.93
32330;BME280;18807;52.434;13.238;2023-07-13T05:07:39;75279.88;;;-142.05;77.17
32330;BME280;18807;52.434;13.238;2023-07-13T05:15:15;75257.44;;;-142.05;73.69
32330;BME280;18807;52.434;13.238;2023-07-13T05:22:53;75241.09;;;-142.05;71.37
32330;BME280;18807;52.434;13.238;2023-07-13T05:30:28;75224.78;;;-142.05;69.92
32330;BME280;18807;52.434;13.238;2023-07-13T05:38:03;75216.63;;;-142.05;69.39
32330;BME280;18807;52.434;13.238;2023-07-13T05:45:39;75196.22;;;-142.05;69.45
32330;BME280;18807;52.434;13.238;2023-07-13T05:53:13;75175.81;;;-142.05;68.50
32330;BME280;18807;52.434;13.238;2023-07-13T06:00:59;75135.00;;;-142.05;66.80
32330;BME280;18807;52.434;13.238;2023-07-13T06:08:33;75096.25;;;-142.05;65.66
32330;BME280;18807;52.434;13.238;2023-07-13T06:16:09;75061.56;;;-142.05;65.81
32330;BME280;18807;52.434;13.238;2023-07-13T06:23:44;75030.94;;;-142.05;61.42
32330;BME280;18807;52.434;13.238;2023-07-13T06:31:22;75024.81;;;-142.05;60.99
32330;BME280;18807;52.434;13.238;2023-07-13T06:38:56;75012.59;;;-142.05;60.46
32330;BME280;18807;52.434;13.238;2023-07-13T06:46:31;75000.34;;;-142.05;60.35
32330;BME280;18807;52.434;13.238;2023-07-13T06:54:06;74984.03;;;-142.05;59.86
32330;BME280;18807;52.434;13.238;2023-07-13T07:01:41;74973.81;;;-142.05;58.26
32330;BME280;18807;52.434;13.238;2023-07-13T07:09:15;74949.34;;;-142.05;56.29
32330;BME280;18807;52.434;13.238;2023-07-13T07:16:51;74924.84;;;-142.05;56.78
32330;BME280;18807;52.434;13.238;2023-07-13T07:24:25;74908.53;;;-142.05;56.30
32330;BME280;18807;52.434;13.238;2023-07-13T07:32:00;74869.78;;;-142.05;53.66
32330;BME280;18807;52.434;13.238;2023-07-13T07:39:50;74839.16;;;-142.05;51.26
32330;BME280;18807;52.434;13.238;2023-07-13T07:47:45;74845.28;;;-142.05;50.17
32330;BME280;18807;52.434;13.238;2023-07-13T07:55:19;74826.94;;;-142.05;48.84
32330;BME280;18807;52.434;13.238;2023-07-13T08:02:58;74800.41;;;-142.05;48.42
32330;BME280;18807;52.434;13.238;2023-07-13T08:10:53;74773.88;;;-142.05;49.00
32330;BME280;18807;52.434;13.238;2023-07-13T08:18:34;74775.91;;;-142.05;48.69
32330;BME280;18807;52.434;13.238;2023-07-13T08:26:09;74745.31;;;-142.05;47.07
32330;BME280;18807;52.434;13.238;2023-07-13T08:33:45;74714.72;;;-142.05;46.04
32330;BME280;18807;52.434;13.238;2023-07-13T08:59:13;74535.19;;;-142.05;44.60
32330;BME280;18807;52.434;13.238;2023-07-13T09:07:04;74516.84;;;-142.05;43.58
32330;BME280;18807;52.434;13.238;2023-07-13T09:14:45;74500.50;;;-142.05;40.68
32330;BME280;18807;52.434;13.238;2023-07-13T09:22:22;74529.06;;;-142.05;41.18
32330;BME280;18807;52.434;13.238;2023-07-13T09:30:17;74598.44;;;-142.05;39.94
32330;BME280;18807;52.434;13.238;2023-07-13T09:38:06;74516.84;;;-142.05;39.40
32330;BME280;18807;52.434;13.238;2023-07-13T09:45:47;74620.88;;;-142.05;40.02
32330;BME280;18807;52.434;13.238;2023-07-13T09:53:21;74631.06;;;-142.05;38.73
32330;BME280;18807;52.434;13.238;2023-07-13T10:00:59;74553.56;;;-142.05;38.20
32330;BME280;18807;52.434;13.238;2023-07-13T10:08:35;74439.31;;;-142.05;38.64
32330;BME280;18807;52.434;13.238;2023-07-13T10:16:11;74541.31;;;-142.05;37.56
32330;BME280;18807;52.434;13.238;2023-07-13T10:23:51;74455.63;;;-142.05;37.03
32330;BME280;18807;52.434;13.238;2023-07-13T10:31:30;74488.28;;;-142.05;36.77
32330;BME280;18807;52.434;13.238;2023-07-13T10:39:05;74425.03;;;-142.05;36.35
32330;BME280;18807;52.434;13.238;2023-07-13T10:46:43;74482.16;;;-142.05;35.39
32330;BME280;18807;52.434;13.238;2023-07-13T10:54:20;74447.47;;;-142.05;34.15
32330;BME280;18807;52.434;13.238;2023-07-13T11:02:05;74412.78;;;-142.05;33.53
32330;BME280;18807;52.434;13.238;2023-07-13T11:09:43;74372.00;;;-142.05;33.89
32330;BME280;18807;52.434;13.238;2023-07-13T11:17:47;74400.56;;;-142.05;34.44
32330;BME280;18807;52.434;13.238;2023-07-13T11:25:27;74402.59;;;-142.05;36.09
32330;BME280;18807;52.434;13.238;2023-07-13T11:33:10;74404.63;;;-142.05;35.62
32330;BME280;18807;52.434;13.238;2023-07-13T11:40:48;74402.59;;;-142.05;34.20
32330;BME280;18807;52.434;13.238;2023-07-13T11:48:29;74372.00;;;-142.05;35.37
32330;BME280;18807;52.434;13.238;2023-07-13T11:56:05;74380.16;;;-142.05;34.87
32330;BME280;18807;52.434;13.238;2023-07-13T12:03:41;74363.84;;;-142.05;33.67
32330;BME280;18807;52.434;13.238;2023-07-13T12:11:17;74374.03;;;-142.05;34.45
32330;BME280;18807;52.434;13.238;2023-07-13T12:18:53;74374.03;;;-142.05;35.29
32330;BME280;18807;52.434;13.238;2023-07-13T12:26:29;74380.16;;;-142.05;35.13
32330;BME280;18807;52.434;13.238;2023-07-13T12:34:09;74341.41;;;-142.05;35.32
32330;BME280;18807;52.434;13.238;2023-07-13T12:41:44;74339.34;;;-142.05;34.62
32330;BME280;18807;52.434;13.238;2023-07-13T12:49:20;74343.44;;;-142.05;34.12
32330;BME280;18807;52.434;13.238;2023-07-13T12:56:57;74369.94;;;-142.05;34.01
32330;BME280;18807;52.434;13.238;2023-07-13T13:04:33;74376.06;;;-142.05;34.80
32330;BME280;18807;52.434;13.238;2023-07-13T13:12:08;74384.22;;;-142.05;34.38
32330;BME280;18807;52.434;13.238;2023-07-13T13:19:47;74339.34;;;-142.05;34.98
32330;BME280;18807;52.434;13.238;2023-07-13T13:27:22;74302.63;;;-142.05;33.61
32330;BME280;18807;52.434;13.238;2023-07-13T13:34:58;74302.63;;;-142.05;33.72
32330;BME280;18807;52.434;13.238;2023-07-13T13:42:32;74314.88;;;-142.05;33.39
32330;BME280;18807;52.434;13.238;2023-07-13T13:50:15;74296.50;;;-142.05;33.64
32330;BME280;18807;52.434;13.238;2023-07-13T13:57:50;74284.28;;;-142.05;33.60
32330;BME280;18807;52.434;13.238;2023-07-13T14:05:25;74261.84;;;-142.05;33.10
32330;BME280;18807;52.434;13.238;2023-07-13T14:12:59;74270.00;;;-142.05;31.86
32330;BME280;18807;52.434;13.238;2023-07-13T14:20:35;74274.06;;;-142.05;32.63
32330;BME280;18807;52.434;13.238;2023-07-13T14:28:19;74284.28;;;-142.05;32.76
32330;BME280;18807;52.434;13.238;2023-07-13T14:35:56;74239.41;;;-142.05;32.36
32330;BME280;18807;52.434;13.238;2023-07-13T14:43:29;74200.66;;;-142.05;32.76
32330;BME280;18807;52.434;13.238;2023-07-13T14:51:08;74192.47;;;-142.05;31.86
32330;BME280;18807;52.434;13.238;2023-07-13T14:58:42;74131.28;;;-142.05;30.90
32330;BME280;18807;52.434;13.238;2023-07-13T15:06:18;74143.53;;;-142.05;30.54
32330;BME280;18807;52.434;13.238;2023-07-13T15:13:53;74114.97;;;-142.05;30.05
32330;BME280;18807;52.434;13.238;2023-07-13T15:21:28;74094.56;;;-142.05;29.75
32330;BME280;18807;52.434;13.238;2023-07-13T15:29:08;74114.97;;;-142.05;29.73
32330;BME280;18807;52.434;13.238;2023-07-13T15:36:43;74127.22;;;-142.05;30.67
32330;BME280;18807;52.434;13.238;2023-07-13T15:44:23;74094.56;;;-142.05;31.09
32330;BME280;18807;52.434;13.238;2023-07-13T15:52:00;74076.22;;;-142.05;30.57
32330;BME280;18807;52.434;13.238;2023-07-13T15:59:34;74068.06;;;-142.05;31.50
32330;BME280;18807;52.434;13.238;2023-07-13T16:07:10;74096.63;;;-142.05;30.31
32330;BME280;18807;52.434;13.238;2023-07-13T16:14:46;74076.22;;;-142.05;30.75
32330;BME280;18807;52.434;13.238;2023-07-13T16:22:22;74092.53;;;-142.05;29.89
32330;BME280;18807;52.434;13.238;2023-07-13T16:29:56;74110.91;;;-142.05;30.06
32330;BME280;18807;52.434;13.238;2023-07-13T16:37:32;74155.78;;;-142.05;29.99
32330;BME280;18807;52.434;13.238;2023-07-13T16:45:17;74196.56;;;-142.05;30.84
32330;BME280;18807;52.434;13.238;2023-07-13T16:52:54;74276.13;;;-142.05;30.73
32330;BME280;18807;52.434;13.238;2023-07-13T17:00:31;74321.00;;;-142.05;31.63
32330;BME280;18807;52.434;13.238;2023-07-13T17:08:15;74527.03;;;-142.05;35.32
32330;BME280;18807;52.434;13.238;2023-07-13T17:15:54;74753.47;;;-142.05;38.83
32330;BME280;18807;52.434;13.238;2023-07-13T17:23:31;74996.25;;;-142.05;45.16
32330;BME280;18807;52.434;13.238;2023-07-13T17:31:06;75043.19;;;-142.05;47.13
32330;BME280;18807;52.434;13.238;2023-07-13T17:38:45;75065.63;;;-142.05;47.87
32330;BME280;18807;52.434;13.238;2023-07-13T17:46:27;75102.38;;;-142.05;48.26
32330;BME280;18807;52.434;13.238;2023-07-13T17:54:11;75132.97;;;-142.05;48.58
32330;BME280;18807;52.434;13.238;2023-07-13T18:01:47;75098.28;;;-142.05;48.52
32330;BME280;18807;52.434;13.238;2023-07-13T18:09:26;75114.59;;;-142.05;48.52
32330;BME280;18807;52.434;13.238;2023-07-13T18:17:02;75116.66;;;-142.05;49.04
32330;BME280;18807;52.434;13.238;2023-07-13T18:24:39;75155.41;;;-142.05;50.04
32330;BME280;18807;52.434;13.238;2023-07-13T18:32:16;75165.63;;;-142.05;50.38
32330;BME280;18807;52.434;13.238;2023-07-13T18:39:55;75155.41;;;-142.05;49.81
32330;BME280;18807;52.434;13.238;2023-07-13T18:47:29;75165.63;;;-142.05;50.04
32330;BME280;18807;52.434;13.238;2023-07-13T18:55:16;75161.53;;;-142.05;49.80
32330;BME280;18807;52.434;13.238;2023-07-13T19:02:51;75163.56;;;-142.05;49.70
32330;BME280;18807;52.434;13.238;2023-07-13T19:10:27;75214.59;;;-142.05;50.70
32330;BME280;18807;52.434;13.238;2023-07-13T19:18:11;75202.34;;;-142.05;50.68
32330;BME280;18807;52.434;13.238;2023-07-13T19:25:47;75220.72;;;-142.05;51.08
32330;BME280;18807;52.434;13.238;2023-07-13T19:33:23;75247.22;;;-142.05;51.76
32330;BME280;18807;52.434;13.238;2023-07-13T19:40:58;75253.34;;;-142.05;51.66
32330;BME280;18807;52.434;13.238;2023-07-13T19:48:35;75275.78;;;-142.05;52.42
32330;BME280;18807;52.434;13.238;2023-07-13T19:56:11;75292.13;;;-142.05;53.02
32330;BME280;18807;52.434;13.238;2023-07-13T20:03:45;75290.06;;;-142.05;53.30
32330;BME280;18807;52.434;13.238;2023-07-13T20:11:20;75320.69;;;-142.05;53.74
32330;BME280;18807;52.434;13.238;2023-07-13T20:18:54;75320.69;;;-142.05;53.77
32330;BME280;18807;52.434;13.238;2023-07-13T20:26:30;75322.72;;;-142.05;53.89
32330;BME280;18807;52.434;13.238;2023-07-13T20:34:04;75314.56;;;-142.05;54.36
32330;BME280;18807;52.434;13.238;2023-07-13T20:41:40;75318.66;;;-142.05;54.93
32330;BME280;18807;52.434;13.238;2023-07-13T20:49:14;75334.97;;;-142.05;55.33
32330;BME280;18807;52.434;13.238;2023-07-13T20:56:50;75355.38;;;-142.05;56.38
32330;BME280;18807;52.434;13.238;2023-07-13T21:04:24;75367.63;;;-142.05;57.00
32330;BME280;18807;52.434;13.238;2023-07-13T21:12:00;75371.69;;;-142.05;56.88
32330;BME280;18807;52.434;13.238;2023-07-13T21:19:33;75373.75;;;-142.05;57.31
32330;BME280;18807;52.434;13.238;2023-07-13T21:27:09;75381.91;;;-142.05;58.00
32330;BME280;18807;52.434;13.238;2023-07-13T21:34:44;75392.09;;;-142.05;58.59
32330;BME280;18807;52.434;13.238;2023-07-13T21:42:20;75400.25;;;-142.05;58.92
32330;BME280;18807;52.434;13.238;2023-07-13T21:49:54;75416.59;;;-142.05;59.32
32330;BME280;18807;52.434;13.238;2023-07-13T21:57:29;75434.97;;;-142.05;59.49
32330;BME280;18807;52.434;13.238;2023-07-13T22:05:11;75453.31;;;-142.05;60.77
32330;BME280;18807;52.434;13.238;2023-07-13T22:12:47;75477.81;;;-142.05;61.72
32330;BME280;18807;52.434;13.238;2023-07-13T22:20:23;75494.13;;;-142.05;62.14
32330;BME280;18807;52.434;13.238;2023-07-13T22:27:58;75500.25;;;-142.05;62.46
32330;BME280;18807;52.434;13.238;2023-07-13T22:35:33;75504.34;;;-142.05;63.14
32330;BME280;18807;52.434;13.238;2023-07-13T22:43:19;75502.28;;;-142.05;62.81
32330;BME280;18807;52.434;13.238;2023-07-13T22:50:55;75502.28;;;-142.05;62.47
32330;BME280;18807;52.434;13.238;2023-07-13T22:58:31;75512.50;;;-142.05;62.47
32330;BME280;18807;52.434;13.238;2023-07-13T23:06:05;75516.56;;;-142.05;62.53
32330;BME280;18807;52.434;13.238;2023-07-13T23:13:45;75534.94;;;-142.05;62.86
32330;BME280;18807;52.434;13.238;2023-07-13T23:21:29;75536.97;;;-142.05;62.65
32330;BME280;18807;52.434;13.238;2023-07-13T23:29:05;75555.34;;;-142.05;62.84
32330;BME280;18807;52.434;13.238;2023-07-13T23:36:45;75571.69;;;-142.05;63.43
32330;BME280;18807;52.434;13.238;2023-07-13T23:44:30;75571.69;;;-142.05;63.69
32330;BME280;18807;52.434;13.238;2023-07-13T23:52:18;75579.84;;;-142.05;63.34
32330;BME280;18807;52.434;13.238;2023-07-13T23:59:58;75600.25;;;-142.05;63.76
